sensor_id;sensor_type;location;lat;lon;timestamp;temperature;humidity
5796;DHT22;2924;51.458;7.046;2023-11-21T00:02:06;6.30;99.90
5796;DHT22;2924;51.458;7.046;2023-11-21T00:04:32;6.30;99.90
5796;DHT22;2924;51.458;7.046;2023-11-21T00:06:57;6.40;99.90
5796;DHT22;2924;51.458;7.046;2023-11-21T00:09:23;6.40;99.90
5796;DHT22;2924;51.458;7.046;2023-11-21T00:11:48;6.40;99.90
5796;DHT22;2924;51.458;7.046;2023-11-21T00:14:14;6.50;99.90
5796;DHT22;2924;51.458;7.046;2023-11-21T00:16:43;6.60;99.90
5796;DHT22;2924;51.458;7.046;2023-11-21T00:19:08;6.60;99.90
5796;DHT22;2924;51.458;7.046;2023-11-21T00:21:34;6.70;99.90
5796;DHT22;2924;51.458;7.046;2023-11-21T00:23:59;6.70;99.90
5796;DHT22;2924;51.458;7.046;2023-11-21T00:26:25;6.80;99.90
5796;DHT22;2924;51.458;7.046;2023-11-21T00:28:51;6.80;99.90
5796;DHT22;2924;51.458;7.046;2023-11-21T00:31:16;6.90;99.90
5796;DHT22;2924;51.458;7.046;2023-11-21T00:33:42;6.90;99.90
5796;DHT22;2924;51.458;7.046;2023-11-21T00:36:11;6.90;99.90
5796;DHT22;2924;51.458;7.046;2023-11-21T00:38:37;6.90;99.90
5796;DHT22;2924;51.458;7.046;2023-11-21T00:41:05;7.00;99.90
5796;DHT22;2924;51.458;7.046;2023-11-21T00:43:31;7.00;99.90
5796;DHT22;2924;51.458;7.046;2023-11-21T00:45:58;7.00;99.90
5796;DHT22;2924;51.458;7.046;2023-11-21T00:48:24;7.00;99.90
5796;DHT22;2924;51.458;7.046;2023-11-21T00:50:49;7.00;99.90
5796;DHT22;2924;51.458;7.046;2023-11-21T00:53:15;7.00;99.90
5796;DHT22;2924;51.458;7.046;2023-11-21T00:55:41;7.00;99.90
5796;DHT22;2924;51.458;7.046;2023-11-21T00:58:06;7.00;99.90
5796;DHT22;2924;51.458;7.046;2023-11-21T01:00:33;7.00;99.90
5796;DHT22;2924;51.458;7.046;2023-11-21T01:02:59;7.00;99.90
5796;DHT22;2924;51.458;7.046;2023-11-21T01:05:25;7.00;99.90
5796;DHT22;2924;51.458;7.046;2023-11-21T01:07:51;7.00;99.90
5796;DHT22;2924;51.458;7.046;2023-11-21T01:10:16;7.00;99.90
5796;DHT22;2924;51.458;7.046;2023-11-21T01:12:42;7.10;99.90
5796;DHT22;2924;51.458;7.046;2023-11-21T01:15:08;7.10;99.90
5796;DHT22;2924;51.458;7.046;2023-11-21T01:17:34;7.10;99.90
5796;DHT22;2924;51.458;7.046;2023-11-21T01:20:01;7.10;99.90
5796;DHT22;2924;51.458;7.046;2023-11-21T01:22:27;7.20;99.90
5796;DHT22;2924;51.458;7.046;2023-11-21T01:24:53;7.20;99.90
5796;DHT22;2924;51.458;7.046;2023-11-21T01:27:19;7.20;99.90
5796;DHT22;2924;51.458;7.046;2023-11-21T01:29:45;7.20;99.90
5796;DHT22;2924;51.458;7.046;2023-11-21T01:32:10;7.20;99.90
5796;DHT22;2924;51.458;7.046;2023-11-21T01:34:36;7.30;99.90
5796;DHT22;2924;51.458;7.046;2023-11-21T01:37:02;7.30;99.90
5796;DHT22;2924;51.458;7.046;2023-11-21T01:39:30;7.30;99.90
5796;DHT22;2924;51.458;7.046;2023-11-21T01:41:55;7.30;99.90
5796;DHT22;2924;51.458;7.046;2023-11-21T01:44:24;7.30;99.90
5796;DHT22;2924;51.458;7.046;2023-11-21T01:46:50;7.30;99.90
5796;DHT22;2924;51.458;7.046;2023-11-21T01:49:16;7.30;99.90
5796;DHT22;2924;51.458;7.046;2023-11-21T01:51:44;7.30;99.90
5796;DHT22;2924;51.458;7.046;2023-11-21T01:54:12;7.30;99.90
5796;DHT22;2924;51.458;7.046;2023-11-21T01:56:38;7.30;99.90
5796;DHT22;2924;51.458;7.046;2023-11-21T01:59:04;7.30;99.90
5796;DHT22;2924;51.458;7.046;2023-11-21T02:01:30;7.30;99.90
5796;DHT22;2924;51.458;7.046;2023-11-21T02:03:57;7.40;99.90
5796;DHT22;2924;51.458;7.046;2023-11-21T02:06:22;7.40;99.90
5796;DHT22;2924;51.458;7.046;2023-11-21T02:08:49;7.40;99.90
5796;DHT22;2924;51.458;7.046;2023-11-21T02:11:15;7.40;99.90
5796;DHT22;2924;51.458;7.046;2023-11-21T02:13:41;7.40;99.90
5796;DHT22;2924;51.458;7.046;2023-11-21T02:16:11;7.40;99.90
5796;DHT22;2924;51.458;7.046;2023-11-21T02:18:38;7.40;99.90
5796;DHT22;2924;51.458;7.046;2023-11-21T02:21:05;7.30;99.90
5796;DHT22;2924;51.458;7.046;2023-11-21T02:23:30;7.30;99.90
5796;DHT22;2924;51.458;7.046;2023-11-21T02:25:56;7.40;99.90
5796;DHT22;2924;51.458;7.046;2023-11-21T02:28:22;7.30;99.90
5796;DHT22;2924;51.458;7.046;2023-11-21T02:30:52;7.30;99.90
5796;DHT22;2924;51.458;7.046;2023-11-21T02:33:22;7.30;99.90
5796;DHT22;2924;51.458;7.046;2023-11-21T02:35:47;7.30;99.90
5796;DHT22;2924;51.458;7.046;2023-11-21T02:38:13;7.30;99.90
5796;DHT22;2924;51.458;7.046;2023-11-21T02:40:39;7.30;99.90
5796;DHT22;2924;51.458;7.046;2023-11-21T02:43:05;7.30;99.90
5796;DHT22;2924;51.458;7.046;2023-11-21T02:45:31;7.30;99.90
5796;DHT22;2924;51.458;7.046;2023-11-21T02:47:57;7.30;99.90
5796;DHT22;2924;51.458;7.046;2023-11-21T02:50:23;7.30;99.90
5796;DHT22;2924;51.458;7.046;2023-11-21T02:52:49;7.20;99.90
5796;DHT22;2924;51.458;7.046;2023-11-21T02:55:15;7.30;99.90
5796;DHT22;2924;51.458;7.046;2023-11-21T02:57:40;7.30;99.90
5796;DHT22;2924;51.458;7.046;2023-11-21T03:00:06;7.30;99.90
5796;DHT22;2924;51.458;7.046;2023-11-21T03:02:33;7.20;99.90
5796;DHT22;2924;51.458;7.046;2023-11-21T03:05:02;7.20;99.90
5796;DHT22;2924;51.458;7.046;2023-11-21T03:07:27;7.20;99.90
5796;DHT22;2924;51.458;7.046;2023-11-21T03:09:53;7.20;99.90
5796;DHT22;2924;51.458;7.046;2023-11-21T03:12:19;7.30;99.90
5796;DHT22;2924;51.458;7.046;2023-11-21T03:14:45;7.20;99.90
5796;DHT22;2924;51.458;7.046;2023-11-21T03:17:10;7.20;99.90
5796;DHT22;2924;51.458;7.046;2023-11-21T03:19:37;7.20;99.90
5796;DHT22;2924;51.458;7.046;2023-11-21T03:22:03;7.20;99.90
5796;DHT22;2924;51.458;7.046;2023-11-21T03:24:29;7.30;99.90
5796;DHT22;2924;51.458;7.046;2023-11-21T03:26:55;7.30;99.90
5796;DHT22;2924;51.458;7.046;2023-11-21T03:29:21;7.20;99.90
5796;DHT22;2924;51.458;7.046;2023-11-21T03:31:47;7.20;99.90
5796;DHT22;2924;51.458;7.046;2023-11-21T03:34:26;7.20;99.90
5796;DHT22;2924;51.458;7.046;2023-11-21T03:36:52;7.20;99.90
5796;DHT22;2924;51.458;7.046;2023-11-21T03:39:21;7.20;99.90
5796;DHT22;2924;51.458;7.046;2023-11-21T03:41:47;7.10;99.90
5796;DHT22;2924;51.458;7.046;2023-11-21T03:44:13;7.10;99.90
5796;DHT22;2924;51.458;7.046;2023-11-21T03:46:39;7.10;99.90
5796;DHT22;2924;51.458;7.046;2023-11-21T03:49:04;7.10;99.90
5796;DHT22;2924;51.458;7.046;2023-11-21T03:51:30;7.10;99.90
5796;DHT22;2924;51.458;7.046;2023-11-21T03:53:56;7.20;99.90
5796;DHT22;2924;51.458;7.046;2023-11-21T03:56:21;7.20;99.90
5796;DHT22;2924;51.458;7.046;2023-11-21T03:58:48;7.20;99.90
5796;DHT22;2924;51.458;7.046;2023-11-21T04:01:24;7.20;99.90
5796;DHT22;2924;51.458;7.046;2023-11-21T04:03:50;7.20;99.90
5796;DHT22;2924;51.458;7.046;2023-11-21T04:06:17;7.20;99.90
5796;DHT22;2924;51.458;7.046;2023-11-21T04:08:46;7.20;99.90
5796;DHT22;2924;51.458;7.046;2023-11-21T04:11:12;7.20;99.90
5796;DHT22;2924;51.458;7.046;2023-11-21T04:13:41;7.20;99.90
5796;DHT22;2924;51.458;7.046;2023-11-21T04:16:08;7.20;99.90
5796;DHT22;2924;51.458;7.046;2023-11-21T04:18:36;7.20;99.90
5796;DHT22;2924;51.458;7.046;2023-11-21T04:21:03;7.10;99.90
5796;DHT22;2924;51.458;7.046;2023-11-21T04:23:29;7.10;99.90
5796;DHT22;2924;51.458;7.046;2023-11-21T04:25:56;7.00;99.90
5796;DHT22;2924;51.458;7.046;2023-11-21T04:28:23;7.00;99.90
5796;DHT22;2924;51.458;7.046;2023-11-21T04:30:50;7.00;99.90
5796;DHT22;2924;51.458;7.046;2023-11-21T04:33:16;7.00;99.90
5796;DHT22;2924;51.458;7.046;2023-11-21T04:35:42;7.00;99.90
5796;DHT22;2924;51.458;7.046;2023-11-21T04:38:07;7.00;99.90
5796;DHT22;2924;51.458;7.046;2023-11-21T04:40:33;7.00;99.90
5796;DHT22;2924;51.458;7.046;2023-11-21T04:42:58;7.00;99.90
5796;DHT22;2924;51.458;7.046;2023-11-21T04:45:24;7.10;99.90
5796;DHT22;2924;51.458;7.046;2023-11-21T04:47:50;7.10;99.90
5796;DHT22;2924;51.458;7.046;2023-11-21T04:50:16;7.10;99.90
5796;DHT22;2924;51.458;7.046;2023-11-21T04:52:42;7.10;99.90
5796;DHT22;2924;51.458;7.046;2023-11-21T04:55:08;7.10;99.90
5796;DHT22;2924;51.458;7.046;2023-11-21T04:57:36;7.10;99.90
5796;DHT22;2924;51.458;7.046;2023-11-21T05:00:02;7.20;99.90
5796;DHT22;2924;51.458;7.046;2023-11-21T05:02:31;7.20;99.90
5796;DHT22;2924;51.458;7.046;2023-11-21T05:04:57;7.20;99.90
5796;DHT22;2924;51.458;7.046;2023-11-21T05:07:22;7.10;99.90
5796;DHT22;2924;51.458;7.046;2023-11-21T05:09:48;7.10;99.90
5796;DHT22;2924;51.458;7.046;2023-11-21T05:12:14;7.10;99.90
5796;DHT22;2924;51.458;7.046;2023-11-21T05:14:40;7.00;99.90
5796;DHT22;2924;51.458;7.046;2023-11-21T05:17:05;7.00;99.90
5796;DHT22;2924;51.458;7.046;2023-11-21T05:19:33;7.00;99.90
5796;DHT22;2924;51.458;7.046;2023-11-21T05:21:59;6.90;99.90
5796;DHT22;2924;51.458;7.046;2023-11-21T05:24:26;6.80;99.90
5796;DHT22;2924;51.458;7.046;2023-11-21T05:26:51;6.70;99.90
5796;DHT22;2924;51.458;7.046;2023-11-21T05:29:18;6.70;99.90
5796;DHT22;2924;51.458;7.046;2023-11-21T05:31:43;6.70;99.90
5796;DHT22;2924;51.458;7.046;2023-11-21T05:34:09;6.80;99.90
5796;DHT22;2924;51.458;7.046;2023-11-21T05:36:35;6.90;99.90
5796;DHT22;2924;51.458;7.046;2023-11-21T05:39:00;6.90;99.90
5796;DHT22;2924;51.458;7.046;2023-11-21T05:41:26;7.00;99.90
5796;DHT22;2924;51.458;7.046;2023-11-21T05:43:51;7.00;99.90
5796;DHT22;2924;51.458;7.046;2023-11-21T05:46:19;7.10;99.90
5796;DHT22;2924;51.458;7.046;2023-11-21T05:48:45;7.10;99.90
5796;DHT22;2924;51.458;7.046;2023-11-21T05:51:11;7.10;99.90
5796;DHT22;2924;51.458;7.046;2023-11-21T05:53:39;7.10;99.90
5796;DHT22;2924;51.458;7.046;2023-11-21T05:56:05;7.10;99.90
5796;DHT22;2924;51.458;7.046;2023-11-21T05:58:30;7.00;99.90
5796;DHT22;2924;51.458;7.046;2023-11-21T06:00:56;7.10;99.90
5796;DHT22;2924;51.458;7.046;2023-11-21T06:03:22;7.10;99.90
5796;DHT22;2924;51.458;7.046;2023-11-21T06:05:48;7.10;99.90
5796;DHT22;2924;51.458;7.046;2023-11-21T06:08:14;7.00;99.90
5796;DHT22;2924;51.458;7.046;2023-11-21T06:10:42;7.00;99.90
5796;DHT22;2924;51.458;7.046;2023-11-21T06:13:09;7.00;99.90
5796;DHT22;2924;51.458;7.046;2023-11-21T06:15:36;7.00;99.90
5796;DHT22;2924;51.458;7.046;2023-11-21T06:18:01;7.00;99.90
5796;DHT22;2924;51.458;7.046;2023-11-21T06:20:27;7.00;99.90
5796;DHT22;2924;51.458;7.046;2023-11-21T06:22:53;7.00;99.90
5796;DHT22;2924;51.458;7.046;2023-11-21T06:25:19;7.00;99.90
5796;DHT22;2924;51.458;7.046;2023-11-21T06:27:46;7.00;99.90
5796;DHT22;2924;51.458;7.046;2023-11-21T06:30:15;7.10;99.90
5796;DHT22;2924;51.458;7.046;2023-11-21T06:32:42;7.10;99.90
5796;DHT22;2924;51.458;7.046;2023-11-21T06:35:10;7.10;99.90
5796;DHT22;2924;51.458;7.046;2023-11-21T06:37:37;7.20;99.90
5796;DHT22;2924;51.458;7.046;2023-11-21T06:40:03;7.20;99.90
5796;DHT22;2924;51.458;7.046;2023-11-21T06:42:32;7.30;99.90
5796;DHT22;2924;51.458;7.046;2023-11-21T06:44:58;7.30;99.90
5796;DHT22;2924;51.458;7.046;2023-11-21T06:47:25;7.30;99.90
5796;DHT22;2924;51.458;7.046;2023-11-21T06:49:52;7.30;99.90
5796;DHT22;2924;51.458;7.046;2023-11-21T06:52:18;7.30;99.90
5796;DHT22;2924;51.458;7.046;2023-11-21T06:54:44;7.30;99.90
5796;DHT22;2924;51.458;7.046;2023-11-21T06:57:11;7.20;99.90
5796;DHT22;2924;51.458;7.046;2023-11-21T06:59:37;7.20;99.90
5796;DHT22;2924;51.458;7.046;2023-11-21T07:02:02;7.20;99.90
5796;DHT22;2924;51.458;7.046;2023-11-21T07:04:28;7.20;99.90
5796;DHT22;2924;51.458;7.046;2023-11-21T07:06:54;7.10;99.90
5796;DHT22;2924;51.458;7.046;2023-11-21T07:09:20;7.20;99.90
5796;DHT22;2924;51.458;7.046;2023-11-21T07:11:49;7.20;99.90
5796;DHT22;2924;51.458;7.046;2023-11-21T07:14:15;7.20;99.90
5796;DHT22;2924;51.458;7.046;2023-11-21T07:16:42;7.30;99.90
5796;DHT22;2924;51.458;7.046;2023-11-21T07:19:08;7.30;99.90
5796;DHT22;2924;51.458;7.046;2023-11-21T07:21:34;7.30;99.90
5796;DHT22;2924;51.458;7.046;2023-11-21T07:24:00;7.40;99.90
5796;DHT22;2924;51.458;7.046;2023-11-21T07:26:29;7.40;99.90
5796;DHT22;2924;51.458;7.046;2023-11-21T07:28:55;7.40;99.90
5796;DHT22;2924;51.458;7.046;2023-11-21T07:31:22;7.40;99.90
5796;DHT22;2924;51.458;7.046;2023-11-21T07:33:47;7.40;99.90
5796;DHT22;2924;51.458;7.046;2023-11-21T07:36:14;7.50;99.90
5796;DHT22;2924;51.458;7.046;2023-11-21T07:38:39;7.50;99.90
5796;DHT22;2924;51.458;7.046;2023-11-21T07:41:05;7.60;99.90
5796;DHT22;2924;51.458;7.046;2023-11-21T07:43:36;7.60;99.90
5796;DHT22;2924;51.458;7.046;2023-11-21T07:46:03;7.60;99.90
5796;DHT22;2924;51.458;7.046;2023-11-21T07:48:29;7.60;99.90
5796;DHT22;2924;51.458;7.046;2023-11-21T07:50:55;7.60;99.90
5796;DHT22;2924;51.458;7.046;2023-11-21T07:53:21;7.60;99.90
5796;DHT22;2924;51.458;7.046;2023-11-21T07:55:47;7.60;99.90
5796;DHT22;2924;51.458;7.046;2023-11-21T07:58:12;7.70;99.90
5796;DHT22;2924;51.458;7.046;2023-11-21T08:00:38;7.70;99.90
5796;DHT22;2924;51.458;7.046;2023-11-21T08:03:05;7.70;99.90
5796;DHT22;2924;51.458;7.046;2023-11-21T08:05:31;7.80;99.90
5796;DHT22;2924;51.458;7.046;2023-11-21T08:07:57;7.90;99.90
5796;DHT22;2924;51.458;7.046;2023-11-21T08:10:22;8.10;99.90
5796;DHT22;2924;51.458;7.046;2023-11-21T08:12:48;8.20;99.90
5796;DHT22;2924;51.458;7.046;2023-11-21T08:15:16;8.30;99.90
5796;DHT22;2924;51.458;7.046;2023-11-21T08:17:41;8.40;99.90
5796;DHT22;2924;51.458;7.046;2023-11-21T08:20:07;8.40;99.90
5796;DHT22;2924;51.458;7.046;2023-11-21T08:22:34;8.40;99.90
5796;DHT22;2924;51.458;7.046;2023-11-21T08:24:59;8.40;99.90
5796;DHT22;2924;51.458;7.046;2023-11-21T08:27:25;8.40;99.90
5796;DHT22;2924;51.458;7.046;2023-11-21T08:29:50;8.40;99.90
5796;DHT22;2924;51.458;7.046;2023-11-21T08:32:18;8.30;99.90
5796;DHT22;2924;51.458;7.046;2023-11-21T08:34:43;8.40;99.90
5796;DHT22;2924;51.458;7.046;2023-11-21T08:37:10;8.40;99.90
5796;DHT22;2924;51.458;7.046;2023-11-21T08:39:37;8.40;99.90
5796;DHT22;2924;51.458;7.046;2023-11-21T08:42:03;8.40;99.90
5796;DHT22;2924;51.458;7.046;2023-11-21T08:44:29;8.40;99.90
5796;DHT22;2924;51.458;7.046;2023-11-21T08:46:55;8.40;99.90
5796;DHT22;2924;51.458;7.046;2023-11-21T08:49:21;8.50;99.90
5796;DHT22;2924;51.458;7.046;2023-11-21T08:51:46;8.50;99.90
5796;DHT22;2924;51.458;7.046;2023-11-21T08:54:12;8.60;99.90
5796;DHT22;2924;51.458;7.046;2023-11-21T08:56:38;8.70;99.90
5796;DHT22;2924;51.458;7.046;2023-11-21T08:59:03;8.80;99.90
5796;DHT22;2924;51.458;7.046;2023-11-21T09:01:29;8.90;99.90
5796;DHT22;2924;51.458;7.046;2023-11-21T09:03:57;8.90;99.90
5796;DHT22;2924;51.458;7.046;2023-11-21T09:06:23;9.00;99.90
5796;DHT22;2924;51.458;7.046;2023-11-21T09:08:49;9.00;99.90
5796;DHT22;2924;51.458;7.046;2023-11-21T09:11:15;9.10;99.90
5796;DHT22;2924;51.458;7.046;2023-11-21T09:13:40;9.10;99.90
5796;DHT22;2924;51.458;7.046;2023-11-21T09:16:06;9.20;99.90
5796;DHT22;2924;51.458;7.046;2023-11-21T09:18:32;9.30;99.90
5796;DHT22;2924;51.458;7.046;2023-11-21T09:20:58;9.30;99.90
5796;DHT22;2924;51.458;7.046;2023-11-21T09:23:24;9.30;99.90
5796;DHT22;2924;51.458;7.046;2023-11-21T09:25:50;9.40;99.90
5796;DHT22;2924;51.458;7.046;2023-11-21T09:28:17;9.40;99.90
5796;DHT22;2924;51.458;7.046;2023-11-21T09:30:43;9.40;99.90
5796;DHT22;2924;51.458;7.046;2023-11-21T09:33:09;9.40;99.90
5796;DHT22;2924;51.458;7.046;2023-11-21T09:35:37;9.50;99.90
5796;DHT22;2924;51.458;7.046;2023-11-21T09:38:04;9.60;99.90
5796;DHT22;2924;51.458;7.046;2023-11-21T09:40:36;9.70;99.90
5796;DHT22;2924;51.458;7.046;2023-11-21T09:43:07;9.80;99.90
5796;DHT22;2924;51.458;7.046;2023-11-21T09:45:36;9.80;99.90
5796;DHT22;2924;51.458;7.046;2023-11-21T09:48:04;9.80;99.90
5796;DHT22;2924;51.458;7.046;2023-11-21T09:50:32;9.80;99.90
5796;DHT22;2924;51.458;7.046;2023-11-21T09:53:24;9.80;99.90
5796;DHT22;2924;51.458;7.046;2023-11-21T09:55:53;9.80;99.90
5796;DHT22;2924;51.458;7.046;2023-11-21T09:58:20;9.90;99.90
5796;DHT22;2924;51.458;7.046;2023-11-21T10:00:48;9.90;99.90
5796;DHT22;2924;51.458;7.046;2023-11-21T10:03:15;10.00;99.90
5796;DHT22;2924;51.458;7.046;2023-11-21T10:05:42;10.00;99.90
5796;DHT22;2924;51.458;7.046;2023-11-21T10:08:10;10.10;99.90
5796;DHT22;2924;51.458;7.046;2023-11-21T10:10:37;10.10;99.90
5796;DHT22;2924;51.458;7.046;2023-11-21T10:13:05;10.20;99.90
5796;DHT22;2924;51.458;7.046;2023-11-21T10:15:36;10.30;99.90
5796;DHT22;2924;51.458;7.046;2023-11-21T10:18:03;10.40;99.90
5796;DHT22;2924;51.458;7.046;2023-11-21T10:20:29;10.50;99.90
5796;DHT22;2924;51.458;7.046;2023-11-21T10:22:55;10.60;99.90
5796;DHT22;2924;51.458;7.046;2023-11-21T10:25:22;10.70;99.90
5796;DHT22;2924;51.458;7.046;2023-11-21T10:27:49;10.70;99.90
5796;DHT22;2924;51.458;7.046;2023-11-21T10:30:18;10.80;99.90
5796;DHT22;2924;51.458;7.046;2023-11-21T10:32:44;10.90;99.90
5796;DHT22;2924;51.458;7.046;2023-11-21T10:35:10;11.10;99.90
5796;DHT22;2924;51.458;7.046;2023-11-21T10:37:39;11.10;99.90
5796;DHT22;2924;51.458;7.046;2023-11-21T10:40:10;11.20;99.90
5796;DHT22;2924;51.458;7.046;2023-11-21T10:42:38;11.30;99.90
5796;DHT22;2924;51.458;7.046;2023-11-21T10:45:04;11.60;99.90
5796;DHT22;2924;51.458;7.046;2023-11-21T10:47:35;11.80;99.90
5796;DHT22;2924;51.458;7.046;2023-11-21T10:50:01;12.10;99.90
5796;DHT22;2924;51.458;7.046;2023-11-21T10:52:27;12.20;99.90
5796;DHT22;2924;51.458;7.046;2023-11-21T10:54:53;12.50;99.90
5796;DHT22;2924;51.458;7.046;2023-11-21T10:57:20;12.50;99.90
5796;DHT22;2924;51.458;7.046;2023-11-21T10:59:47;12.60;99.90
5796;DHT22;2924;51.458;7.046;2023-11-21T11:02:23;12.60;99.90
5796;DHT22;2924;51.458;7.046;2023-11-21T11:04:52;12.30;99.90
5796;DHT22;2924;51.458;7.046;2023-11-21T11:07:17;12.20;99.90
5796;DHT22;2924;51.458;7.046;2023-11-21T11:09:45;12.10;99.90
5796;DHT22;2924;51.458;7.046;2023-11-21T11:12:12;11.90;99.90
5796;DHT22;2924;51.458;7.046;2023-11-21T11:14:40;11.90;99.90
5796;DHT22;2924;51.458;7.046;2023-11-21T11:17:07;11.80;99.90
5796;DHT22;2924;51.458;7.046;2023-11-21T11:19:34;11.70;99.90
5796;DHT22;2924;51.458;7.046;2023-11-21T11:22:36;11.60;99.90
5796;DHT22;2924;51.458;7.046;2023-11-21T11:25:16;11.50;99.90
5796;DHT22;2924;51.458;7.046;2023-11-21T11:28:07;11.60;99.90
5796;DHT22;2924;51.458;7.046;2023-11-21T11:31:21;11.70;99.90
5796;DHT22;2924;51.458;7.046;2023-11-21T11:34:07;11.90;99.90
5796;DHT22;2924;51.458;7.046;2023-11-21T11:38:52;12.30;99.90
5796;DHT22;2924;51.458;7.046;2023-11-21T11:41:31;12.40;99.90
5796;DHT22;2924;51.458;7.046;2023-11-21T11:44:00;12.50;99.90
5796;DHT22;2924;51.458;7.046;2023-11-21T11:46:44;12.50;99.90
5796;DHT22;2924;51.458;7.046;2023-11-21T11:49:27;12.60;99.90
5796;DHT22;2924;51.458;7.046;2023-11-21T11:52:34;12.40;99.90
5796;DHT22;2924;51.458;7.046;2023-11-21T11:55:01;12.30;99.90
5796;DHT22;2924;51.458;7.046;2023-11-21T11:57:30;12.40;99.90
5796;DHT22;2924;51.458;7.046;2023-11-21T12:03:07;12.30;99.90
5796;DHT22;2924;51.458;7.046;2023-11-21T12:05:35;12.00;99.90
5796;DHT22;2924;51.458;7.046;2023-11-21T12:08:05;11.70;99.90
5796;DHT22;2924;51.458;7.046;2023-11-21T12:10:35;11.50;99.90
5796;DHT22;2924;51.458;7.046;2023-11-21T12:13:03;11.30;99.90
5796;DHT22;2924;51.458;7.046;2023-11-21T12:15:30;11.20;99.90
5796;DHT22;2924;51.458;7.046;2023-11-21T12:17:57;11.10;99.90
5796;DHT22;2924;51.458;7.046;2023-11-21T12:20:25;11.00;99.90
5796;DHT22;2924;51.458;7.046;2023-11-21T12:22:51;11.00;99.90
5796;DHT22;2924;51.458;7.046;2023-11-21T12:25:22;10.90;99.90
5796;DHT22;2924;51.458;7.046;2023-11-21T12:27:53;10.90;99.90
5796;DHT22;2924;51.458;7.046;2023-11-21T12:30:23;10.80;99.90
5796;DHT22;2924;51.458;7.046;2023-11-21T12:32:53;10.60;99.90
5796;DHT22;2924;51.458;7.046;2023-11-21T12:35:21;10.50;99.90
5796;DHT22;2924;51.458;7.046;2023-11-21T12:37:50;10.30;99.90
5796;DHT22;2924;51.458;7.046;2023-11-21T12:40:18;10.10;99.90
5796;DHT22;2924;51.458;7.046;2023-11-21T12:42:52;10.10;99.90
5796;DHT22;2924;51.458;7.046;2023-11-21T12:45:26;10.00;99.90
5796;DHT22;2924;51.458;7.046;2023-11-21T12:48:03;10.00;99.90
5796;DHT22;2924;51.458;7.046;2023-11-21T12:50:33;10.00;99.90
5796;DHT22;2924;51.458;7.046;2023-11-21T12:53:03;9.90;99.90
5796;DHT22;2924;51.458;7.046;2023-11-21T12:55:34;9.80;99.90
5796;DHT22;2924;51.458;7.046;2023-11-21T12:58:04;9.70;99.90
5796;DHT22;2924;51.458;7.046;2023-11-21T13:00:43;9.60;99.90
5796;DHT22;2924;51.458;7.046;2023-11-21T13:03:11;9.60;99.90
5796;DHT22;2924;51.458;7.046;2023-11-21T13:05:39;9.50;99.90
5796;DHT22;2924;51.458;7.046;2023-11-21T13:08:09;9.40;99.90
5796;DHT22;2924;51.458;7.046;2023-11-21T13:10:43;9.40;99.90
5796;DHT22;2924;51.458;7.046;2023-11-21T13:13:13;9.30;99.90
5796;DHT22;2924;51.458;7.046;2023-11-21T13:18:18;9.20;99.90
5796;DHT22;2924;51.458;7.046;2023-11-21T13:20:44;9.00;99.90
5796;DHT22;2924;51.458;7.046;2023-11-21T13:23:11;9.00;99.90
5796;DHT22;2924;51.458;7.046;2023-11-21T13:25:42;9.00;99.90
5796;DHT22;2924;51.458;7.046;2023-11-21T13:28:08;9.00;99.90
5796;DHT22;2924;51.458;7.046;2023-11-21T13:30:37;9.00;99.90
5796;DHT22;2924;51.458;7.046;2023-11-21T13:33:05;9.00;99.90
5796;DHT22;2924;51.458;7.046;2023-11-21T13:35:33;9.00;99.90
5796;DHT22;2924;51.458;7.046;2023-11-21T13:38:14;8.90;99.90
5796;DHT22;2924;51.458;7.046;2023-11-21T13:40:47;8.90;99.90
5796;DHT22;2924;51.458;7.046;2023-11-21T13:43:17;8.90;99.90
5796;DHT22;2924;51.458;7.046;2023-11-21T13:45:48;8.90;99.90
5796;DHT22;2924;51.458;7.046;2023-11-21T13:48:17;8.90;99.90
5796;DHT22;2924;51.458;7.046;2023-11-21T13:50:50;8.90;99.90
5796;DHT22;2924;51.458;7.046;2023-11-21T13:53:38;8.80;99.90
5796;DHT22;2924;51.458;7.046;2023-11-21T13:56:04;8.80;99.90
5796;DHT22;2924;51.458;7.046;2023-11-21T13:58:30;8.80;99.90
5796;DHT22;2924;51.458;7.046;2023-11-21T14:01:14;8.70;99.90
5796;DHT22;2924;51.458;7.046;2023-11-21T14:03:58;8.60;99.90
5796;DHT22;2924;51.458;7.046;2023-11-21T14:06:48;8.60;99.90
5796;DHT22;2924;51.458;7.046;2023-11-21T14:09:15;8.60;99.90
5796;DHT22;2924;51.458;7.046;2023-11-21T14:11:49;8.60;99.90
5796;DHT22;2924;51.458;7.046;2023-11-21T14:14:15;8.60;99.90
5796;DHT22;2924;51.458;7.046;2023-11-21T14:16:42;8.60;99.90
5796;DHT22;2924;51.458;7.046;2023-11-21T14:19:07;8.60;99.90
5796;DHT22;2924;51.458;7.046;2023-11-21T14:21:44;8.60;99.90
5796;DHT22;2924;51.458;7.046;2023-11-21T14:24:11;8.70;99.90
5796;DHT22;2924;51.458;7.046;2023-11-21T14:26:41;8.70;99.90
5796;DHT22;2924;51.458;7.046;2023-11-21T14:29:08;8.70;99.90
5796;DHT22;2924;51.458;7.046;2023-11-21T14:31:34;8.60;99.90
5796;DHT22;2924;51.458;7.046;2023-11-21T14:34:00;8.50;99.90
5796;DHT22;2924;51.458;7.046;2023-11-21T14:36:29;8.40;99.90
5796;DHT22;2924;51.458;7.046;2023-11-21T14:38:55;8.40;99.90
5796;DHT22;2924;51.458;7.046;2023-11-21T14:41:21;8.30;99.90
5796;DHT22;2924;51.458;7.046;2023-11-21T14:43:47;8.30;99.90
5796;DHT22;2924;51.458;7.046;2023-11-21T14:46:15;8.40;99.90
5796;DHT22;2924;51.458;7.046;2023-11-21T14:48:42;8.30;99.90
5796;DHT22;2924;51.458;7.046;2023-11-21T14:51:11;8.40;99.90
5796;DHT22;2924;51.458;7.046;2023-11-21T14:53:53;8.30;99.90
5796;DHT22;2924;51.458;7.046;2023-11-21T14:56:22;8.30;99.90
5796;DHT22;2924;51.458;7.046;2023-11-21T14:58:59;8.20;99.90
5796;DHT22;2924;51.458;7.046;2023-11-21T15:01:32;8.20;99.90
5796;DHT22;2924;51.458;7.046;2023-11-21T15:04:17;8.20;99.90
5796;DHT22;2924;51.458;7.046;2023-11-21T15:07:04;8.10;99.90
5796;DHT22;2924;51.458;7.046;2023-11-21T15:09:30;8.10;99.90
5796;DHT22;2924;51.458;7.046;2023-11-21T15:12:02;8.00;99.90
5796;DHT22;2924;51.458;7.046;2023-11-21T15:14:39;8.00;99.90
5796;DHT22;2924;51.458;7.046;2023-11-21T15:17:04;7.90;99.90
5796;DHT22;2924;51.458;7.046;2023-11-21T15:19:30;7.90;99.90
5796;DHT22;2924;51.458;7.046;2023-11-21T15:21:56;7.90;99.90
5796;DHT22;2924;51.458;7.046;2023-11-21T15:24:22;7.90;99.90
5796;DHT22;2924;51.458;7.046;2023-11-21T15:26:47;7.90;99.90
5796;DHT22;2924;51.458;7.046;2023-11-21T15:29:13;7.80;99.90
5796;DHT22;2924;51.458;7.046;2023-11-21T15:31:40;7.80;99.90
5796;DHT22;2924;51.458;7.046;2023-11-21T15:34:11;7.80;99.90
5796;DHT22;2924;51.458;7.046;2023-11-21T15:36:37;7.70;99.90
5796;DHT22;2924;51.458;7.046;2023-11-21T15:39:02;7.70;99.90
5796;DHT22;2924;51.458;7.046;2023-11-21T15:41:28;7.60;99.90
5796;DHT22;2924;51.458;7.046;2023-11-21T15:43:53;7.60;99.90
5796;DHT22;2924;51.458;7.046;2023-11-21T15:46:20;7.60;99.90
5796;DHT22;2924;51.458;7.046;2023-11-21T15:48:45;7.60;99.90
5796;DHT22;2924;51.458;7.046;2023-11-21T15:51:16;7.60;99.90
5796;DHT22;2924;51.458;7.046;2023-11-21T15:53:42;7.60;99.90
5796;DHT22;2924;51.458;7.046;2023-11-21T15:56:08;7.60;99.90
5796;DHT22;2924;51.458;7.046;2023-11-21T15:58:38;7.60;99.90
5796;DHT22;2924;51.458;7.046;2023-11-21T16:01:09;7.60;99.90
5796;DHT22;2924;51.458;7.046;2023-11-21T16:03:36;7.50;99.90
5796;DHT22;2924;51.458;7.046;2023-11-21T16:06:02;7.40;99.90
5796;DHT22;2924;51.458;7.046;2023-11-21T16:08:28;7.40;99.90
5796;DHT22;2924;51.458;7.046;2023-11-21T16:10:54;7.40;99.90
5796;DHT22;2924;51.458;7.046;2023-11-21T16:13:20;7.40;99.90
5796;DHT22;2924;51.458;7.046;2023-11-21T16:15:46;7.30;99.90
5796;DHT22;2924;51.458;7.046;2023-11-21T16:18:13;7.30;99.90
5796;DHT22;2924;51.458;7.046;2023-11-21T16:20:38;7.20;99.90
5796;DHT22;2924;51.458;7.046;2023-11-21T16:23:04;7.20;99.90
5796;DHT22;2924;51.458;7.046;2023-11-21T16:25:29;7.20;99.90
5796;DHT22;2924;51.458;7.046;2023-11-21T16:27:55;7.10;99.90